Terminal Aerodrome Forecast
Issued by NWS

Home | Current Version | Previous Version | Graphics & Text | Print | Product List | Glossary On
Versions: 1 2 3 4 5 6 7 8 9 10 11 12 13 14 15 16 17 18 19 20 21 22 23 24 25
000
FTUS43 KGRB 240500
TAFAUW
TAF
KAUW 240520Z 2406/2506 VRB03KT 6SM BR OVC009
      TEMPO 2406/2410 1SM -SNDZ BR OVC005
     FM241000 03004KT 5SM BR OVC006
      TEMPO 2410/2413 2SM -FZDZ BR OVC002
     FM241300 04006KT 6SM -SN BR SCT005 OVC010
     FM241900 35008KT P6SM -SN SCT008 OVC015
     FM250100 31006KT P6SM BKN015 OVC022=

USA.gov is the U.S. government's official web portal to all federal, state and local government web resources and services.